tititudorancea.com
Station Historical Data
 
Daily Summary for June 25, 2017 Units:  Metric    English   Both
« Previous Day
Next Day »
Daily Weekly Monthly Yearly Custom
  Current: High: Low: Average:
Temperature: 13.1 °C 13.1 °C 6.2 °C 8.7 °C
Dew Point: 9.8 °C 11.7 °C 6.1 °C 8.1 °C
Humidity: 81 % 99 % 80 % 96 %
Wind Speed: 0 km/h 0 km/h 0 km/h 0 km/h
Wind Gust: 0 km/h 1.1 km/h - -
Wind:Calm - - North
Pressure: 1021.9 hPa 1023.9 hPa 1021.9 hPa -
Precipitation: 0 mm      
Historical Graphs
 
 
Ararat weather Find more about Weather in Ararat, AU


 



 


Tabular Data for June 25, 2017
Time Temperature Dew Point Pressure Wind Wind Speed Wind Gust Humidity Rainfall Rate (Hourly)
00:01 7.3 °C 6.8 °C 1023.9 hPa Calm     96 % 0 mm
00:06 7.3 °C 6.5 °C 1023.6 hPa Calm     95 % 0 mm
00:11 7.3 °C 6.7 °C 1023.9 hPa Calm     96 % 0 mm
00:16 7.2 °C 6.6 °C 1023.9 hPa Calm     96 % 0 mm
00:19 7.2 °C 6.6 °C 1023.9 hPa Calm     96 % 0 mm
00:24 7.2 °C 6.6 °C 1023.9 hPa Calm     96 % 0 mm
00:29 7.2 °C 6.6 °C 1023.6 hPa Calm     96 % 0 mm
00:34 7.2 °C 6.6 °C 1023.6 hPa Calm     96 % 0 mm
00:39 7.3 °C 6.7 °C 1023.6 hPa Calm     96 % 0 mm
00:44 7.3 °C 6.7 °C 1023.6 hPa Calm     96 % 0 mm
00:49 7.3 °C 6.7 °C 1023.6 hPa Calm     96 % 0 mm
00:54 7.3 °C 6.7 °C 1023.2 hPa Calm     96 % 0 mm
00:55 7.3 °C 6.7 °C 1023.2 hPa Calm     96 % 0 mm
01:00 7.3 °C 6.7 °C 1023.2 hPa Calm     96 % 0 mm
01:05 7.3 °C 6.7 °C 1023.2 hPa Calm     96 % 0 mm
01:10 7.2 °C 6.6 °C 1023.2 hPa Calm     96 % 0 mm
01:15 7.1 °C 6.3 °C 1023.2 hPa Calm     95 % 0 mm
01:20 7.1 °C 6.4 °C 1023.2 hPa Calm     96 % 0 mm
01:25 6.9 °C 6.4 °C 1023.2 hPa Calm     96 % 0 mm
01:30 6.9 °C 6.4 °C 1022.9 hPa Calm     96 % 0 mm
01:35 6.8 °C 6.3 °C 1022.9 hPa Calm     96 % 0 mm
01:40 6.8 °C 6.3 °C 1022.9 hPa Calm     96 % 0 mm
01:45 6.8 °C 6.3 °C 1022.9 hPa Calm     96 % 0 mm
01:50 6.8 °C 6.3 °C 1023.2 hPa Calm     97 % 0 mm
01:55 6.8 °C 6.3 °C 1023.2 hPa Calm     97 % 0 mm
01:56 6.8 °C 6.3 °C 1023.2 hPa Calm     97 % 0 mm
02:01 6.7 °C 6.2 °C 1022.9 hPa Calm     97 % 0 mm
02:06 6.7 °C 6.2 °C 1023.2 hPa Calm     97 % 0 mm
02:11 6.7 °C 6.2 °C 1023.2 hPa Calm     97 % 0 mm
02:16 6.8 °C 6.4 °C 1023.2 hPa Calm     98 % 0 mm
02:21 6.8 °C 6.4 °C 1023.2 hPa Calm     98 % 0 mm
02:26 6.8 °C 6.4 °C 1023.2 hPa Calm     98 % 0 mm
02:31 6.7 °C 6.4 °C 1022.9 hPa Calm     98 % 0 mm
02:36 6.6 °C 6.3 °C 1023.2 hPa Calm     98 % 0 mm
02:41 6.4 °C 6.2 °C 1022.9 hPa Calm     98 % 0 mm
02:46 6.4 °C 6.3 °C 1022.9 hPa Calm     99 % 0 mm
02:51 6.4 °C 6.3 °C 1022.9 hPa Calm     99 % 0 mm
02:56 6.4 °C 6.3 °C 1023.2 hPa Calm     99 % 0 mm
03:01 6.6 °C 6.4 °C 1022.9 hPa Calm     99 % 0 mm
03:06 6.6 °C 6.4 °C 1022.9 hPa Calm     99 % 0 mm
03:11 6.6 °C 6.4 °C 1022.9 hPa Calm     99 % 0 mm
03:16 6.6 °C 6.4 °C 1022.6 hPa Calm     99 % 0 mm
03:21 6.7 °C 6.5 °C 1022.9 hPa Calm     99 % 0 mm
03:26 6.7 °C 6.5 °C 1022.9 hPa Calm     99 % 0 mm
03:31 6.7 °C 6.5 °C 1022.9 hPa Calm     99 % 0 mm
03:36 6.8 °C 6.6 °C 1023.2 hPa Calm     99 % 0 mm
03:41 6.8 °C 6.6 °C 1023.2 hPa Calm     99 % 0 mm
03:46 6.8 °C 6.6 °C 1022.9 hPa Calm     99 % 0 mm
03:51 6.8 °C 6.7 °C 1023.2 hPa Calm     99 % 0 mm
03:56 6.8 °C 6.7 °C 1022.9 hPa Calm     99 % 0 mm
04:01 6.9 °C 6.8 °C 1022.9 hPa Calm     99 % 0 mm
04:06 6.9 °C 6.8 °C 1022.9 hPa Calm     99 % 0 mm
04:11 7.1 °C 6.9 °C 1022.9 hPa Calm     99 % 0 mm
04:16 7.1 °C 6.9 °C 1022.6 hPa Calm     99 % 0 mm
04:21 7.2 °C 7 °C 1022.6 hPa Calm     99 % 0 mm
04:26 7.2 °C 7 °C 1022.6 hPa Calm     99 % 0 mm
04:31 7.3 °C 7.1 °C 1022.6 hPa Calm     99 % 0 mm
04:36 7.3 °C 7.1 °C 1022.6 hPa Calm     99 % 0 mm
04:41 7.3 °C 7.1 °C 1022.6 hPa Calm     99 % 0 mm
04:46 7.3 °C 7.1 °C 1022.6 hPa Calm     99 % 0 mm
04:51 7.3 °C 7.1 °C 1022.6 hPa Calm     99 % 0 mm
04:56 7.2 °C 7 °C 1022.2 hPa Calm     99 % 0 mm
05:01 7.2 °C 7 °C 1022.6 hPa Calm     99 % 0 mm
05:06 7.2 °C 7 °C 1022.6 hPa Calm     99 % 0 mm
05:11 7.2 °C 7 °C 1022.9 hPa Calm     99 % 0 mm
05:16 7.3 °C 7.1 °C 1022.6 hPa Calm     99 % 0 mm
05:21 7.2 °C 7 °C 1022.6 hPa Calm     99 % 0 mm
05:27 7.2 °C 7 °C 1022.6 hPa Calm     99 % 0 mm
05:32 7.2 °C 7 °C 1022.6 hPa Calm     99 % 0 mm
05:37 7.2 °C 7 °C 1022.6 hPa Calm     99 % 0 mm
05:42 7.2 °C 7 °C 1022.6 hPa Calm     99 % 0 mm
05:47 7.2 °C 7 °C 1022.6 hPa Calm     99 % 0 mm
05:52 7.1 °C 6.9 °C 1022.6 hPa Calm     99 % 0 mm
05:57 7.1 °C 6.9 °C 1022.6 hPa Calm     99 % 0 mm
06:02 6.9 °C 6.8 °C 1022.2 hPa Calm     99 % 0 mm
06:07 6.9 °C 6.8 °C 1022.6 hPa Calm     99 % 0 mm
06:12 6.9 °C 6.8 °C 1022.6 hPa Calm     99 % 0 mm
06:17 6.8 °C 6.6 °C 1022.6 hPa Calm     99 % 0 mm
06:22 6.7 °C 6.5 °C 1022.6 hPa Calm     99 % 0 mm
06:27 6.6 °C 6.4 °C 1022.6 hPa Calm     99 % 0 mm
06:32 6.4 °C 6.2 °C 1022.6 hPa Calm     99 % 0 mm
06:37 6.4 °C 6.2 °C 1022.9 hPa Calm     99 % 0 mm
06:42 6.3 °C 6.1 °C 1022.9 hPa Calm     99 % 0 mm
06:47 6.3 °C 6.1 °C 1022.9 hPa Calm     99 % 0 mm
06:52 6.3 °C 6.1 °C 1022.6 hPa Calm     99 % 0 mm
06:57 6.3 °C 6.1 °C 1022.9 hPa Calm     99 % 0 mm
07:02 6.2 °C 6.1 °C 1022.9 hPa Calm     99 % 0 mm
07:07 6.2 °C 6.1 °C 1022.6 hPa Calm     99 % 0 mm
07:12 6.2 °C 6.1 °C 1022.9 hPa Calm     99 % 0 mm
07:17 6.2 °C 6.1 °C 1022.9 hPa Calm     99 % 0 mm
07:22 6.3 °C 6.1 °C 1022.9 hPa Calm     99 % 0 mm
07:27 6.4 °C 6.2 °C 1022.9 hPa Calm     99 % 0 mm
07:33 6.4 °C 6.3 °C 1023.2 hPa Calm     99 % 0 mm
07:38 6.6 °C 6.4 °C 1023.2 hPa Calm     99 % 0 mm
07:43 6.7 °C 6.5 °C 1023.2 hPa Calm     99 % 0 mm
07:48 6.8 °C 6.7 °C 1022.9 hPa Calm     99 % 0 mm
07:53 6.9 °C 6.8 °C 1023.2 hPa Calm     99 % 0 mm
07:58 7.1 °C 6.9 °C 1023.2 hPa Calm     99 % 0 mm
08:03 7.2 °C 7 °C 1023.2 hPa Calm     99 % 0 mm
08:08 7.3 °C 7.1 °C 1023.2 hPa Calm     99 % 0 mm
08:13 7.3 °C 7.2 °C 1023.2 hPa Calm     99 % 0 mm
08:18 7.3 °C 7.2 °C 1023.2 hPa Calm     99 % 0 mm
08:23 7.4 °C 7.3 °C 1023.2 hPa Calm     99 % 0 mm
08:28 7.4 °C 7.3 °C 1023.2 hPa Calm     99 % 0 mm
08:33 7.4 °C 7.3 °C 1023.2 hPa Calm     99 % 0 mm
08:38 7.6 °C 7.4 °C 1023.2 hPa Calm     99 % 0 mm
08:41 7.7 °C 7.5 °C 1023.2 hPa Calm     99 % 0 mm
08:46 7.7 °C 7.5 °C 1023.2 hPa Calm     99 % 0 mm
08:51 7.8 °C 7.7 °C 1023.2 hPa Calm     99 % 0 mm
08:56 7.8 °C 7.7 °C 1023.2 hPa Calm     99 % 0 mm
09:01 7.9 °C 7.8 °C 1023.2 hPa Calm     99 % 0 mm
09:06 8.1 °C 7.9 °C 1023.2 hPa Calm     99 % 0 mm
09:11 8.1 °C 7.9 °C 1023.2 hPa Calm     99 % 0 mm
09:16 8.1 °C 7.9 °C 1023.2 hPa Calm     99 % 0 mm
09:21 8.1 °C 7.9 °C 1023.2 hPa Calm     99 % 0 mm
09:26 8.1 °C 8 °C 1023.2 hPa Calm     99 % 0 mm
09:31 8.2 °C 8.1 °C 1023.2 hPa Calm     99 % 0 mm
09:36 8.2 °C 8.1 °C 1023.2 hPa Calm     99 % 0 mm
09:41 8.3 °C 8.2 °C 1023.6 hPa Calm     99 % 0 mm
09:46 8.3 °C 8.2 °C 1023.6 hPa Calm     99 % 0 mm
09:51 8.4 °C 8.3 °C 1023.6 hPa Calm   1.1 km/h 99 % 0 mm
09:56 8.5 °C 8.4 °C 1023.2 hPa Calm   1.1 km/h 99 % 0 mm
10:01 8.6 °C 8.5 °C 1023.6 hPa Calm     99 % 0 mm
10:06 8.9 °C 8.8 °C 1023.6 hPa Calm     99 % 0 mm
10:11 9.1 °C 8.9 °C 1023.6 hPa Calm     99 % 0 mm
10:16 9.3 °C 9.2 °C 1023.6 hPa Calm     99 % 0 mm
10:21 9.4 °C 9.3 °C 1023.2 hPa Calm     99 % 0 mm
10:26 9.8 °C 9.7 °C 1023.6 hPa Calm     99 % 0 mm
10:31 10 °C 9.8 °C 1023.6 hPa Calm     99 % 0 mm
10:36 10.2 °C 10.1 °C 1023.6 hPa Calm     99 % 0 mm
10:41 10.3 °C 10.2 °C 1023.6 hPa Calm   1.1 km/h 99 % 0 mm
10:46 10.5 °C 10.3 °C 1023.6 hPa Calm   1.1 km/h 99 % 0 mm
10:51 10.6 °C 10.4 °C 1023.9 hPa Calm     99 % 0 mm
10:56 10.8 °C 10.6 °C 1023.6 hPa Calm     99 % 0 mm
11:01 10.9 °C 10.7 °C 1023.6 hPa Calm     99 % 0 mm
11:06 10.9 °C 10.7 °C 1023.6 hPa Calm     99 % 0 mm
11:11 11 °C 10.8 °C 1023.6 hPa Calm     99 % 0 mm
11:16 11 °C 10.8 °C 1023.9 hPa Calm   1.1 km/h 99 % 0 mm
11:21 10.9 °C 10.7 °C 1023.6 hPa Calm   1.1 km/h 99 % 0 mm
11:26 10.8 °C 10.6 °C 1023.6 hPa Calm   1.1 km/h 99 % 0 mm
11:31 10.6 °C 10.4 °C 1023.6 hPa Calm     99 % 0 mm
11:36 10.7 °C 10.6 °C 1023.2 hPa Calm   1.1 km/h 99 % 0 mm
11:41 11.3 °C 11.1 °C 1023.6 hPa Calm   1.1 km/h 99 % 0 mm
11:44 11.4 °C 11.3 °C 1023.2 hPa Calm     99 % 0 mm
11:49 11.7 °C 11.5 °C 1023.2 hPa Calm     99 % 0 mm
11:54 11.8 °C 11.6 °C 1023.2 hPa Calm     99 % 0 mm
11:59 11.8 °C 11.7 °C 1023.2 hPa Calm     99 % 0 mm
12:04 11.8 °C 11.6 °C 1023.2 hPa Calm   1.1 km/h 98 % 0 mm
12:09 11.8 °C 11.3 °C 1023.2 hPa Calm   1.1 km/h 97 % 0 mm
12:14 11.7 °C 11.1 °C 1022.9 hPa Calm   1.1 km/h 96 % 0 mm
12:19 11.8 °C 11.2 °C 1022.9 hPa Calm   1.1 km/h 96 % 0 mm
12:24 11.9 °C 11.3 °C 1022.9 hPa Calm     96 % 0 mm
12:25 12.1 °C 11.4 °C 1022.9 hPa Calm     96 % 0 mm
12:30 12.2 °C 11.5 °C 1022.6 hPa Calm     95 % 0 mm
12:35 12.3 °C 11.6 °C 1022.9 hPa Calm     95 % 0 mm
12:40 12.4 °C 11.5 °C 1022.6 hPa Calm     94 % 0 mm
12:45 12.2 °C 11.2 °C 1022.6 hPa Calm     93 % 0 mm
12:50 12.1 °C 10.9 °C 1022.6 hPa Calm     93 % 0 mm
12:55 11.8 °C 10.5 °C 1022.6 hPa Calm     92 % 0 mm
13:00 11.8 °C 10.5 °C 1022.6 hPa Calm     92 % 0 mm
13:05 11.8 °C 10.6 °C 1022.6 hPa Calm     92 % 0 mm
13:10 12.2 °C 11 °C 1022.6 hPa Calm     92 % 0 mm
13:15 12.6 °C 11.1 °C 1022.6 hPa Calm     91 % 0 mm
13:20 12.6 °C 10.6 °C 1022.6 hPa Calm   1.1 km/h 88 % 0 mm
13:26 12.4 °C 10.3 °C 1022.6 hPa Calm   1.1 km/h 87 % 0 mm
13:30 12.4 °C 10.5 °C 1022.6 hPa Calm     88 % 0 mm
13:35 12.6 °C 10.6 °C 1022.6 hPa Calm     88 % 0 mm
13:41 12.6 °C 10.6 °C 1022.2 hPa Calm   1.1 km/h 88 % 0 mm
13:46 12.7 °C 11 °C 1022.2 hPa Calm   1.1 km/h 89 % 0 mm
13:51 12.9 °C 11 °C 1022.2 hPa Calm     88 % 0 mm
13:52 12.9 °C 11 °C 1022.2 hPa Calm     88 % 0 mm
13:57 12.8 °C 10.9 °C 1022.2 hPa Calm     88 % 0 mm
14:02 12.8 °C 10.9 °C 1022.2 hPa Calm     88 % 0 mm
14:04 12.8 °C 10.7 °C 1022.2 hPa Calm     87 % 0 mm
14:09 12.7 °C 10.6 °C 1022.2 hPa Calm     87 % 0 mm
14:14 12.8 °C 10.6 °C 1022.2 hPa Calm   1.1 km/h 86 % 0 mm
14:19 12.8 °C 10.6 °C 1022.2 hPa Calm   1.1 km/h 86 % 0 mm
14:24 12.7 °C 10.3 °C 1022.2 hPa Calm     85 % 0 mm
14:29 12.8 °C 10.2 °C 1022.2 hPa Calm     84 % 0 mm
14:34 12.8 °C 9.8 °C 1022.2 hPa Calm     82 % 0 mm
14:39 12.9 °C 10.1 °C 1022.2 hPa Calm     83 % 0 mm
14:44 13.1 °C 9.8 °C 1022.2 hPa Calm   1.1 km/h 81 % 0 mm
14:47 13.1 °C 9.7 °C 1022.2 hPa Calm   1.1 km/h 80 % 0 mm
14:52 12.9 °C 9.8 °C 1022.2 hPa Calm     81 % 0 mm
14:57 12.9 °C 9.8 °C 1021.9 hPa Calm     81 % 0 mm
15:02 13.1 °C 9.8 °C 1021.9 hPa Calm     81 % 0 mm
Ararat Weather
Compliments of Weather Underground - 1.25 mb
Click here to send mail.


ABOUT

Live weather data from Ararat, Victoria, Australia, 3377
Data uploaded from Cumulus every 5 minutes to Weather Underground.
This site then downloads the raw data for formatting and display.
Metric and imperial data can be displayed. Graphs and historical data available.
Includes Sun and Moon times and rain image live from BOM.

Check out Ararat Weather on Facebook, Twitter and Google +

Help support ongoing costs by checking out the ads





Follow @AraratWeather